createdAt,value
2019-05-14T00:01:05.766Z,7.14
2019-05-14T00:06:12.965Z,7.09
2019-05-14T00:08:41.988Z,7.01
2019-05-14T00:11:12.805Z,7.03
2019-05-14T00:13:41.649Z,7.00
2019-05-14T00:16:11.855Z,6.95
2019-05-14T00:18:41.969Z,6.90
2019-05-14T00:21:12.214Z,6.93
2019-05-14T00:23:42.177Z,6.89
2019-05-14T00:26:12.173Z,6.86
2019-05-14T00:28:42.388Z,6.91
2019-05-14T00:31:12.103Z,6.90
2019-05-14T00:36:24.836Z,6.81
2019-05-14T00:38:53.890Z,6.82
2019-05-14T00:41:23.195Z,6.65
2019-05-14T00:43:51.984Z,6.75
2019-05-14T00:46:21.222Z,6.74
2019-05-14T00:51:31.820Z,6.69
2019-05-14T00:54:01.711Z,6.61
2019-05-14T00:56:32.100Z,6.58
2019-05-14T00:59:01.489Z,6.53
2019-05-14T01:01:31.832Z,6.57
2019-05-14T01:04:01.281Z,6.49
2019-05-14T01:06:31.435Z,6.45
2019-05-14T01:11:44.970Z,6.52
2019-05-14T01:14:13.718Z,6.43
2019-05-14T01:16:42.623Z,6.33
2019-05-14T01:19:12.388Z,6.41
2019-05-14T01:21:41.712Z,6.42
2019-05-14T01:26:48.989Z,6.35
2019-05-14T01:31:55.281Z,6.19
2019-05-14T01:34:23.954Z,6.05
2019-05-14T01:36:53.074Z,5.99
2019-05-14T01:39:21.913Z,5.90
2019-05-14T01:41:51.716Z,5.98
2019-05-14T01:44:21.347Z,5.95
2019-05-14T02:17:18.038Z,5.34
2019-05-14T02:19:47.124Z,5.47
2019-05-14T02:22:16.530Z,5.36
2019-05-14T02:24:45.213Z,5.25
2019-05-14T02:27:14.228Z,5.06
2019-05-14T02:32:22.649Z,4.99
2019-05-14T02:37:30.104Z,4.80
2019-05-14T02:39:59.855Z,4.84
2019-05-14T02:42:29.691Z,4.92
2019-05-14T02:47:39.322Z,4.52
2019-05-14T02:50:10.049Z,4.68
2019-05-14T02:55:15.245Z,4.79
2019-05-14T02:57:44.244Z,4.63
2019-05-14T03:00:13.984Z,4.64
2019-05-14T03:02:43.093Z,4.45
2019-05-14T03:07:52.531Z,4.33
2019-05-14T03:10:21.090Z,4.33
2019-05-14T03:12:50.407Z,4.38
2019-05-14T03:15:20.011Z,4.13
2019-05-14T03:20:29.004Z,4.19
2019-05-14T03:25:41.028Z,4.28
2019-05-14T03:28:09.663Z,4.26
2019-05-14T03:30:42.495Z,4.15
2019-05-14T03:33:13.240Z,4.18
2019-05-14T03:35:44.623Z,4.18
2019-05-14T03:38:10.923Z,4.13
2019-05-14T03:40:40.139Z,4.16
2019-05-14T03:43:09.135Z,4.05
2019-05-14T03:45:39.146Z,4.17
2019-05-14T03:48:10.387Z,4.10
2019-05-14T03:50:39.019Z,3.94
2019-05-14T03:53:10.055Z,3.86
2019-05-14T03:58:21.086Z,3.74
2019-05-14T04:00:52.759Z,3.82
2019-05-14T04:03:22.477Z,3.83
2019-05-14T04:05:52.191Z,3.85
2019-05-14T04:08:23.194Z,3.86
2019-05-14T04:13:42.411Z,3.88
2019-05-14T04:16:14.129Z,3.89
2019-05-14T04:18:50.510Z,3.93
2019-05-14T04:21:20.767Z,3.91
2019-05-14T04:26:30.294Z,4.10
2019-05-14T04:29:00.528Z,4.01
2019-05-14T04:31:32.197Z,4.08
2019-05-14T04:34:02.723Z,4.09
2019-05-14T04:36:31.566Z,4.09
2019-05-14T04:39:00.839Z,4.19
2019-05-14T04:41:30.088Z,4.17
2019-05-14T04:46:39.655Z,4.34
2019-05-14T04:49:09.598Z,4.32
2019-05-14T04:51:39.675Z,4.42
2019-05-14T04:56:50.641Z,4.52
2019-05-14T04:59:19.329Z,4.53
2019-05-14T05:04:29.886Z,4.63
2019-05-14T05:06:59.443Z,4.65
2019-05-14T05:12:08.857Z,4.85
2019-05-14T05:14:38.962Z,4.81
2019-05-14T05:17:09.221Z,4.87
2019-05-14T05:19:39.401Z,4.93
2019-05-14T05:22:08.098Z,4.98
2019-05-14T05:24:38.212Z,5.06
2019-05-14T05:27:09.323Z,5.25
2019-05-14T05:29:39.214Z,5.31
2019-05-14T05:32:08.700Z,5.30
2019-05-14T05:34:38.807Z,5.77
2019-05-14T05:37:08.802Z,5.57
2019-05-14T05:39:38.683Z,5.62
2019-05-14T05:42:09.167Z,5.68
2019-05-14T05:44:39.577Z,5.77
2019-05-14T05:47:09.174Z,5.78
2019-05-14T05:49:38.310Z,5.92
2019-05-14T05:54:49.066Z,6.59
2019-05-14T05:57:18.750Z,6.38
2019-05-14T05:59:48.485Z,6.44
2019-05-14T06:04:55.763Z,7.26
2019-05-14T06:07:24.742Z,7.03
2019-05-14T06:09:53.357Z,7.11
2019-05-14T06:12:22.370Z,7.03
2019-05-14T06:17:29.022Z,7.24
2019-05-14T06:22:38.298Z,7.37
2019-05-14T06:25:10.571Z,7.95
2019-05-14T06:27:38.096Z,7.65
2019-05-14T06:32:44.600Z,7.73
2019-05-14T06:35:13.304Z,7.96
2019-05-14T06:37:41.902Z,8.22
2019-05-14T06:40:10.867Z,8.15
2019-05-14T06:42:39.726Z,8.39
2019-05-14T06:47:50.188Z,8.75
2019-05-14T06:50:19.201Z,8.45
2019-05-14T06:55:28.401Z,8.98
2019-05-14T06:57:58.508Z,9.06
2019-05-14T07:00:28.664Z,9.06
2019-05-14T07:02:58.392Z,9.39
2019-05-14T07:05:28.104Z,9.19
2019-05-14T07:07:59.747Z,9.09
2019-05-14T07:10:28.773Z,9.11
2019-05-14T07:12:59.256Z,9.74
2019-05-14T07:15:29.004Z,9.91
2019-05-14T07:17:58.523Z,9.60
2019-05-14T07:23:08.208Z,10.42
2019-05-14T07:28:19.373Z,11.06
2019-05-14T07:30:48.494Z,10.96
2019-05-14T07:33:18.353Z,11.14
2019-05-14T07:35:48.798Z,10.96
2019-05-14T07:40:58.528Z,10.69
2019-05-14T07:46:08.281Z,11.31
2019-05-14T07:48:38.977Z,11.63
2019-05-14T07:51:08.892Z,11.43
2019-05-14T07:53:42.083Z,11.46
2019-05-14T07:58:45.782Z,11.51
2019-05-14T08:01:14.393Z,11.79
2019-05-14T08:06:20.959Z,12.02
2019-05-14T08:08:49.610Z,11.81
2019-05-14T08:13:58.491Z,12.10
2019-05-14T08:16:28.869Z,12.26
2019-05-14T08:18:59.930Z,12.13
2019-05-14T08:24:08.974Z,13.12
2019-05-14T08:29:17.946Z,13.17
2019-05-14T08:31:48.631Z,13.60
2019-05-14T08:36:58.844Z,14.07
2019-05-14T08:39:30.507Z,13.37
2019-05-14T08:42:03.872Z,13.57
2019-05-14T08:44:30.122Z,13.62
2019-05-14T08:47:00.785Z,13.23
2019-05-14T08:49:39.228Z,13.38
2019-05-14T08:52:00.615Z,13.94
2019-05-14T08:54:29.610Z,13.66
2019-05-14T08:56:58.534Z,13.34
2019-05-14T08:59:28.710Z,15.35
2019-05-14T09:02:05.938Z,15.35
2019-05-14T09:04:30.321Z,15.89
2019-05-14T09:06:58.541Z,15.89
2019-05-14T09:09:28.948Z,16.17
2019-05-14T09:11:59.932Z,16.55
2019-05-14T09:14:28.712Z,16.63
2019-05-14T09:19:39.228Z,16.48
2019-05-14T09:22:09.595Z,16.72
2019-05-14T09:24:38.782Z,15.92
2019-05-14T09:27:08.565Z,15.66
2019-05-14T09:29:39.441Z,16.15
2019-05-14T09:34:48.483Z,16.01
2019-05-14T09:37:19.289Z,16.97
2019-05-14T09:42:24.799Z,17.12
2019-05-14T09:44:53.419Z,17.67
2019-05-14T09:47:23.728Z,17.79
2019-05-14T09:52:29.958Z,18.00
2019-05-14T09:54:58.696Z,18.54
2019-05-14T09:57:28.162Z,18.59
2019-05-14T09:59:58.570Z,17.69
2019-05-14T10:05:09.030Z,16.20
2019-05-14T10:07:39.107Z,17.08
2019-05-14T10:10:08.264Z,16.78
2019-05-14T10:12:48.208Z,15.51
2019-05-14T10:17:49.980Z,15.60
2019-05-14T10:20:36.014Z,15.18
2019-05-14T10:22:49.919Z,15.24
2019-05-14T10:25:19.203Z,15.85
2019-05-14T10:27:48.549Z,15.13
2019-05-14T10:30:18.186Z,15.54
2019-05-14T10:32:49.224Z,16.08
2019-05-14T10:35:19.220Z,15.93
2019-05-14T10:40:29.088Z,16.28
2019-05-14T10:42:57.310Z,16.46
2019-05-14T10:45:28.750Z,15.82
2019-05-14T10:50:52.243Z,16.20
2019-05-14T10:53:09.077Z,16.99
2019-05-14T10:55:38.699Z,16.66
2019-05-14T10:58:08.842Z,16.08
2019-05-14T11:00:41.513Z,16.27
2019-05-14T11:03:08.532Z,16.99
2019-05-14T11:05:41.304Z,16.82
2019-05-14T11:08:11.886Z,16.14
2019-05-14T11:10:42.190Z,17.38
2019-05-14T11:13:11.219Z,16.03
2019-05-14T11:15:40.635Z,16.03
2019-05-14T11:20:51.565Z,17.25
2019-05-14T11:23:20.087Z,17.93
2019-05-14T11:28:28.699Z,16.44
2019-05-14T11:30:57.279Z,16.86
2019-05-14T11:36:09.030Z,18.74
2019-05-14T11:38:37.689Z,18.55
2019-05-14T11:43:44.593Z,17.22
2019-05-14T11:46:13.657Z,16.45
2019-05-14T11:48:43.054Z,17.16
2019-05-14T11:51:12.062Z,17.15
2019-05-14T11:53:40.820Z,17.82
2019-05-14T11:56:09.473Z,18.53
2019-05-14T12:01:18.941Z,16.63
2019-05-14T12:03:49.955Z,16.67
2019-05-14T12:06:18.823Z,16.50
2019-05-14T12:08:48.313Z,16.75
2019-05-14T12:11:19.298Z,17.96
2019-05-14T12:13:48.707Z,16.70
2019-05-14T12:16:17.774Z,16.97
2019-05-14T12:18:48.436Z,16.16
2019-05-14T12:21:17.006Z,16.27
2019-05-14T12:23:46.600Z,16.65
2019-05-14T12:26:18.898Z,17.17
2019-05-14T12:28:49.184Z,17.43
2019-05-14T12:33:58.219Z,17.03
2019-05-14T12:39:09.556Z,17.84
2019-05-14T12:44:16.097Z,17.70
2019-05-14T12:46:45.856Z,17.70
2019-05-14T12:49:14.961Z,16.83
2019-05-14T12:51:44.023Z,17.35
2019-05-14T12:54:13.408Z,17.73
2019-05-14T12:59:21.411Z,17.54
2019-05-14T13:01:50.565Z,17.26
2019-05-14T13:04:20.088Z,16.87
2019-05-14T13:06:48.966Z,16.63
2019-05-14T13:09:21.368Z,15.95
2019-05-14T13:11:48.132Z,16.24
2019-05-14T13:14:16.926Z,16.86
2019-05-14T13:19:25.438Z,17.00
2019-05-14T13:22:08.688Z,16.84
2019-05-14T13:24:24.572Z,17.06
2019-05-14T13:26:53.277Z,17.21
2019-05-14T13:29:22.348Z,17.74
2019-05-14T13:34:28.986Z,18.14
2019-05-14T13:36:59.639Z,17.70
2019-05-14T13:39:28.441Z,17.63
2019-05-14T13:41:59.839Z,17.38
2019-05-14T13:44:29.188Z,17.13
2019-05-14T13:46:59.623Z,17.07
2019-05-14T13:49:29.583Z,17.21
2019-05-14T13:54:39.739Z,17.49
2019-05-14T13:57:11.935Z,17.50
2019-05-14T13:59:43.744Z,17.65
2019-05-14T14:04:48.323Z,16.36
2019-05-14T14:07:18.963Z,15.85
2019-05-14T14:09:49.663Z,16.44
2019-05-14T14:12:18.065Z,15.76
2019-05-14T14:14:49.291Z,15.61
2019-05-14T14:19:54.885Z,16.59
2019-05-14T14:25:03.783Z,17.66
2019-05-14T14:27:32.561Z,17.39
2019-05-14T14:30:01.176Z,17.67
2019-05-14T14:32:30.346Z,16.95
2019-05-14T14:34:59.172Z,17.06
2019-05-14T14:37:28.684Z,16.14
2019-05-14T14:39:59.295Z,15.67
2019-05-14T14:45:08.624Z,15.81
2019-05-14T14:47:39.334Z,16.31
2019-05-14T14:50:08.933Z,17.36
2019-05-14T14:52:37.601Z,17.67
2019-05-14T14:55:06.410Z,16.90
2019-05-14T14:57:35.063Z,17.38
2019-05-14T15:00:04.715Z,16.81
2019-05-14T15:05:14.403Z,16.70
2019-05-14T15:07:41.948Z,15.83
2019-05-14T15:10:11.053Z,16.18
2019-05-14T15:12:40.374Z,15.65
2019-05-14T15:15:09.236Z,15.78
2019-05-14T15:17:39.250Z,15.88
2019-05-14T15:22:49.474Z,16.61
2019-05-14T15:25:18.569Z,16.10
2019-05-14T15:30:28.739Z,16.13
2019-05-14T15:32:59.791Z,16.00
2019-05-14T15:35:28.603Z,16.79
2019-05-14T15:37:58.980Z,16.26
2019-05-14T15:40:28.961Z,15.02
2019-05-14T15:42:59.002Z,15.55
2019-05-14T15:45:28.809Z,16.29
2019-05-14T15:48:02.981Z,16.59
2019-05-14T15:50:29.244Z,16.30
2019-05-14T15:52:58.371Z,16.52
2019-05-14T15:58:04.852Z,16.28
2019-05-14T16:00:33.783Z,15.06
2019-05-14T16:05:41.858Z,15.55
2019-05-14T16:08:10.832Z,15.40
2019-05-14T16:10:40.057Z,15.24
2019-05-14T16:13:09.214Z,14.94
2019-05-14T16:15:38.968Z,15.06
2019-05-14T16:18:15.432Z,15.14
2019-05-14T16:20:39.196Z,15.75
2019-05-14T16:23:10.786Z,14.88
2019-05-14T16:25:39.063Z,15.16
2019-05-14T16:30:49.710Z,15.40
2019-05-14T16:33:18.759Z,15.10
2019-05-14T16:35:48.524Z,14.33
2019-05-14T16:38:17.800Z,14.61
2019-05-14T16:40:48.732Z,14.88
2019-05-14T16:43:19.002Z,14.87
2019-05-14T16:45:49.155Z,14.73
2019-05-14T16:48:18.291Z,14.60
2019-05-14T16:50:48.885Z,14.65
2019-05-14T16:53:19.515Z,14.36
2019-05-14T16:55:48.988Z,14.38
2019-05-14T16:58:19.458Z,14.32
2019-05-14T17:00:48.256Z,14.51
2019-05-14T17:05:58.020Z,14.77
2019-05-14T17:08:28.487Z,14.44
2019-05-14T17:13:34.874Z,13.83
2019-05-14T17:16:03.876Z,13.83
2019-05-14T17:18:32.653Z,13.82
2019-05-14T17:21:01.704Z,13.95
2019-05-14T17:23:30.326Z,14.19
2019-05-14T17:28:40.585Z,14.22
2019-05-14T17:31:09.201Z,14.09
2019-05-14T17:33:40.469Z,13.83
2019-05-14T17:36:09.684Z,13.41
2019-05-14T17:38:39.180Z,13.32
2019-05-14T17:41:09.433Z,13.83
2019-05-14T17:46:18.361Z,13.74
2019-05-14T17:48:48.676Z,13.22
2019-05-14T17:51:18.108Z,13.38
2019-05-14T17:53:48.050Z,13.25
2019-05-14T17:56:19.153Z,13.35
2019-05-14T17:58:48.909Z,13.29
2019-05-14T18:03:58.495Z,13.24
2019-05-14T18:06:28.577Z,13.05
2019-05-14T18:08:58.757Z,12.77
2019-05-14T18:11:28.353Z,12.88
2019-05-14T18:13:59.004Z,12.85
2019-05-14T18:16:28.638Z,12.77
2019-05-14T18:18:58.290Z,12.89
2019-05-14T18:21:28.545Z,12.56
2019-05-14T18:23:58.577Z,12.50
2019-05-14T18:26:29.086Z,12.36
2019-05-14T18:28:58.158Z,12.24
2019-05-14T18:31:27.170Z,12.26
2019-05-14T18:33:58.594Z,12.16
2019-05-14T18:36:28.520Z,11.82
2019-05-14T18:38:58.589Z,11.75
2019-05-14T18:41:29.298Z,11.71
2019-05-14T18:43:58.829Z,11.66
2019-05-14T18:46:28.526Z,11.68
2019-05-14T18:48:59.231Z,11.49
2019-05-14T18:51:28.860Z,11.20
2019-05-14T18:53:58.409Z,11.02
2019-05-14T18:56:29.250Z,11.05
2019-05-14T19:01:39.509Z,10.87
2019-05-14T19:04:08.226Z,11.02
2019-05-14T19:06:38.945Z,10.70
2019-05-14T19:09:10.599Z,11.02
2019-05-14T19:14:18.728Z,10.52
2019-05-14T19:16:48.914Z,10.53
2019-05-14T19:19:20.474Z,10.23
2019-05-14T19:24:28.700Z,10.28
2019-05-14T19:26:59.512Z,10.24
2019-05-14T19:29:28.229Z,10.38
2019-05-14T19:31:57.386Z,10.37
2019-05-14T19:34:28.552Z,10.18
2019-05-14T19:36:56.793Z,10.18
2019-05-14T19:39:25.457Z,9.89
2019-05-14T19:41:54.226Z,9.92
2019-05-14T19:44:22.839Z,10.09
2019-05-14T19:46:52.090Z,10.07
2019-05-14T19:51:59.944Z,10.25
2019-05-14T19:54:29.341Z,9.91
2019-05-14T19:59:38.637Z,9.72
2019-05-14T20:02:09.508Z,9.70
2019-05-14T20:04:37.787Z,9.47
2019-05-14T20:07:08.793Z,9.64
2019-05-14T20:09:38.845Z,9.48
2019-05-14T20:12:07.770Z,9.40
2019-05-14T20:14:38.301Z,9.34
2019-05-14T20:17:08.967Z,9.41
2019-05-14T20:19:39.374Z,9.32
2019-05-14T20:22:08.170Z,9.18
2019-05-14T20:24:41.220Z,9.25
2019-05-14T20:27:11.917Z,9.34
2019-05-14T20:29:39.041Z,9.33
2019-05-14T20:34:53.884Z,9.20
2019-05-14T20:37:22.562Z,9.10
2019-05-14T20:39:51.483Z,9.14
2019-05-14T20:45:03.404Z,9.05
2019-05-14T20:47:32.622Z,8.92
2019-05-14T20:50:01.278Z,8.86
2019-05-14T20:52:30.266Z,8.52
2019-05-14T20:57:38.382Z,8.72
2019-05-14T21:00:07.898Z,8.65
2019-05-14T21:02:39.368Z,8.61
2019-05-14T21:05:13.417Z,8.51
2019-05-14T21:07:39.179Z,8.51
2019-05-14T21:10:08.045Z,8.40
2019-05-14T21:15:15.635Z,8.37
2019-05-14T21:17:44.404Z,8.26
2019-05-14T21:20:13.056Z,8.23
2019-05-14T21:25:20.685Z,8.12
2019-05-14T21:30:29.263Z,7.80
2019-05-14T21:33:00.118Z,7.80
2019-05-14T21:35:29.158Z,7.67
2019-05-14T21:37:59.371Z,7.51
2019-05-14T21:43:06.276Z,7.36
2019-05-14T21:45:34.980Z,7.29
2019-05-14T21:48:04.049Z,7.16
2019-05-14T21:50:32.864Z,7.14
2019-05-14T21:53:01.506Z,7.14
2019-05-14T21:58:09.029Z,7.15
2019-05-14T22:00:48.302Z,7.15
2019-05-14T22:06:05.244Z,7.03
2019-05-14T22:08:34.182Z,6.95
2019-05-14T22:11:03.165Z,7.00
2019-05-14T22:13:32.326Z,6.93
2019-05-14T22:16:00.951Z,6.89
2019-05-14T22:18:29.755Z,6.72
2019-05-14T22:20:58.823Z,6.66
2019-05-14T22:23:29.183Z,6.73
2019-05-14T22:25:58.780Z,6.73
2019-05-14T22:28:28.852Z,6.68
2019-05-14T22:30:58.732Z,6.72
2019-05-14T22:33:28.478Z,6.66
2019-05-14T22:35:58.090Z,6.63
2019-05-14T22:38:29.348Z,6.59
2019-05-14T22:40:59.195Z,6.57
2019-05-14T22:43:28.849Z,6.58
2019-05-14T22:45:59.111Z,6.53
2019-05-14T22:48:27.838Z,6.52
2019-05-14T22:50:59.119Z,6.45
2019-05-14T22:53:27.817Z,6.39
2019-05-14T22:55:58.619Z,6.42
2019-05-14T22:58:28.834Z,6.41
2019-05-14T23:01:13.636Z,6.37
2019-05-14T23:03:28.996Z,6.27
2019-05-14T23:05:58.233Z,6.22
2019-05-14T23:08:26.936Z,6.16
2019-05-14T23:10:55.788Z,6.06
2019-05-14T23:13:24.760Z,6.12
2019-05-14T23:15:53.372Z,6.15
2019-05-14T23:18:22.456Z,5.75
2019-05-14T23:20:51.173Z,5.73
2019-05-14T23:23:20.566Z,5.76
2019-05-14T23:25:49.514Z,5.84
2019-05-14T23:28:19.265Z,5.82
2019-05-14T23:30:48.445Z,5.85
2019-05-14T23:33:19.045Z,5.81
2019-05-14T23:35:48.351Z,5.79
2019-05-14T23:40:58.643Z,5.37
2019-05-14T23:43:28.693Z,5.49
2019-05-14T23:48:42.459Z,5.51
2019-05-14T23:51:11.098Z,5.38
2019-05-14T23:56:19.136Z,5.42
2019-05-14T23:58:57.750Z,5.29
